Time;durP1;ratioP1;P1;durP2;ratioP2;P2;SDS_P1;SDS_P2;PMS_P1;PMS_P2;Temp;Humidity;BMP_temperature;BMP_pressure;BME280_temperature;BME280_humidity;BME280_pressure;Samples;Min_cycle;Max_cycle;Signal;HPM_P1;HPM_P2
2023/07/03 00:00:16;;;;;;;89.35;52.35;;;27.80;99.90;;;;;;5015861;28;20014;-70
2023/07/03 00:02:43;;;;;;;94.47;57.50;;;27.80;99.90;;;;;;5011122;28;20049;-70
2023/07/03 00:05:11;;;;;;;158.52;89.10;;;27.80;99.90;;;;;;5015654;28;20080;-70
2023/07/03 00:07:38;;;;;;;112.70;68.38;;;27.80;99.90;;;;;;5005318;28;20049;-71
2023/07/03 00:10:06;;;;;;;104.15;63.33;;;27.70;99.90;;;;;;5015654;28;20092;-73
2023/07/03 00:12:33;;;;;;;89.25;54.97;;;27.60;99.90;;;;;;5015607;28;20491;-73
2023/07/03 00:14:59;;;;;;;88.57;54.72;;;27.60;99.90;;;;;;5015712;28;20025;-72
2023/07/03 00:17:26;;;;;;;85.32;55.72;;;27.60;99.90;;;;;;5013194;28;20022;-71
2023/07/03 00:19:53;;;;;;;84.35;52.47;;;27.40;99.90;;;;;;5014131;28;20026;-69
2023/07/03 00:22:20;;;;;;;79.90;51.60;;;27.40;99.90;;;;;;5015901;28;20127;-69
2023/07/03 00:24:47;;;;;;;72.55;50.65;;;27.40;99.90;;;;;;5015603;28;20049;-68
2023/07/03 00:27:14;;;;;;;74.40;50.03;;;27.30;99.90;;;;;;5015993;28;20021;-70
2023/07/03 00:29:40;;;;;;;84.93;54.25;;;27.30;99.90;;;;;;5014665;28;20026;-71
2023/07/03 00:32:07;;;;;;;81.15;51.78;;;27.30;99.90;;;;;;5013886;28;20068;-70
2023/07/03 00:34:34;;;;;;;76.45;51.05;;;27.30;99.90;;;;;;5015046;28;20050;-70
2023/07/03 00:37:00;;;;;;;75.43;52.40;;;27.40;99.90;;;;;;5013968;28;20023;-70
2023/07/03 00:39:27;;;;;;;77.75;53.65;;;27.40;99.90;;;;;;5014084;28;20022;-70
2023/07/03 00:41:54;;;;;;;82.60;55.92;;;27.40;99.90;;;;;;5014991;28;20525;-68
2023/07/03 00:44:21;;;;;;;100.78;59.35;;;27.40;99.90;;;;;;5015288;28;20406;-70
2023/07/03 00:46:50;;;;;;;104.30;64.70;;;27.60;99.90;;;;;;5015116;28;20014;-70
2023/07/03 00:49:21;;;;;;;121.68;76.10;;;27.70;99.90;;;;;;5005986;28;20096;-69
2023/07/03 00:51:54;;;;;;;119.63;75.63;;;27.80;99.90;;;;;;5012348;28;20021;-73
2023/07/03 00:54:22;;;;;;;118.90;73.57;;;27.70;99.90;;;;;;5014880;28;20041;-72
2023/07/03 00:56:52;;;;;;;112.80;71.45;;;27.70;99.90;;;;;;5012439;28;20036;-70
2023/07/03 00:59:19;;;;;;;112.32;72.57;;;27.70;99.90;;;;;;5014780;28;20026;-70
2023/07/03 01:01:59;;;;;;;105.40;68.30;;;27.80;99.90;;;;;;5012995;28;20072;-70
2023/07/03 01:04:31;;;;;;;113.90;72.55;;;27.90;99.90;;;;;;5013449;28;20026;-70
2023/07/03 01:07:02;;;;;;;107.43;65.78;;;28.00;99.90;;;;;;5011186;28;20030;-71
2023/07/03 01:09:37;;;;;;;106.10;66.73;;;28.00;99.90;;;;;;5012987;28;20029;-70
2023/07/03 01:12:05;;;;;;;105.75;70.30;;;28.00;99.90;;;;;;5013561;28;20362;-73
2023/07/03 01:14:35;;;;;;;117.32;71.80;;;28.00;99.90;;;;;;5008476;28;20022;-73
2023/07/03 01:17:02;;;;;;;108.88;68.03;;;28.10;99.90;;;;;;5008595;28;20160;-71
2023/07/03 01:19:32;;;;;;;113.45;70.05;;;28.10;99.90;;;;;;5003202;28;20019;-73
2023/07/03 01:22:20;;;;;;;107.97;70.78;;;28.00;99.90;;;;;;5002245;28;20104;-72
2023/07/03 01:24:55;;;;;;;110.20;72.28;;;28.10;99.90;;;;;;5007015;28;20487;-73
2023/07/03 01:27:26;;;;;;;100.63;68.25;;;28.10;99.90;;;;;;5011736;28;20029;-72
2023/07/03 01:29:53;;;;;;;96.18;63.72;;;28.20;99.90;;;;;;5003713;28;20026;-72
2023/07/03 01:32:24;;;;;;;100.78;63.08;;;28.20;99.90;;;;;;4995641;28;20029;-73
2023/07/03 01:34:53;;;;;;;89.05;58.25;;;28.30;99.90;;;;;;5014373;28;20456;-74
2023/07/03 01:37:25;;;;;;;78.03;47.38;;;28.50;99.90;;;;;;5012268;28;20113;-73
2023/07/03 01:39:53;;;;;;;69.88;44.15;;;28.50;99.90;;;;;;5013104;28;20101;-73
2023/07/03 01:42:24;;;;;;;64.00;41.15;;;28.50;99.90;;;;;;5014703;28;20056;-71
2023/07/03 01:44:51;;;;;;;56.00;36.58;;;28.50;99.90;;;;;;5008854;28;20034;-72
2023/07/03 01:47:18;;;;;;;57.88;37.70;;;28.60;99.90;;;;;;5006755;28;20260;-71
2023/07/03 01:49:44;;;;;;;70.20;43.22;;;28.70;99.90;;;;;;5005258;28;20108;-72
2023/07/03 01:52:19;;;;;;;71.60;46.88;;;28.70;99.90;;;;;;5004898;28;20029;-74
2023/07/03 01:55:03;;;;;;;74.35;46.15;;;28.70;99.90;;;;;;5003220;28;20028;-72
2023/07/03 01:57:38;;;;;;;82.20;45.83;;;28.80;99.90;;;;;;5005052;28;20371;-72
2023/07/03 02:00:09;;;;;;;61.17;39.33;;;28.80;99.90;;;;;;5004368;28;20046;-72
2023/07/03 02:02:37;;;;;;;73.90;43.83;;;28.80;99.90;;;;;;5005229;28;20030;-66
2023/07/03 02:05:11;;;;;;;50.95;33.10;;;28.90;99.90;;;;;;5009364;28;20030;-70
2023/07/03 02:07:39;;;;;;;45.58;29.00;;;28.90;99.90;;;;;;5004336;28;20033;-69
2023/07/03 02:10:06;;;;;;;47.08;31.55;;;28.90;99.90;;;;;;5006412;28;20033;-69
2023/07/03 02:12:33;;;;;;;42.25;30.23;;;29.00;99.90;;;;;;5005401;28;20398;-72
2023/07/03 02:15:02;;;;;;;41.15;26.83;;;29.10;99.90;;;;;;5005172;28;20018;-71
2023/07/03 02:17:29;;;;;;;155.23;124.07;;;29.10;99.90;;;;;;5002704;28;20018;-72
2023/07/03 02:19:56;;;;;;;38.90;26.05;;;29.20;99.90;;;;;;5008694;28;20058;-72
2023/07/03 02:22:23;;;;;;;38.47;25.67;;;29.20;99.90;;;;;;5008090;28;20072;-72
2023/07/03 02:24:49;;;;;;;43.58;25.25;;;29.30;99.90;;;;;;5002238;28;20023;-71
2023/07/03 02:27:16;;;;;;;37.78;26.67;;;29.20;99.90;;;;;;5004929;28;20029;-71
2023/07/03 02:29:42;;;;;;;39.45;25.75;;;29.30;99.90;;;;;;5013320;28;20117;-72
2023/07/03 02:32:12;;;;;;;35.10;20.98;;;29.40;99.90;;;;;;5008684;28;20108;-71
2023/07/03 02:34:39;;;;;;;41.95;24.45;;;29.50;99.90;;;;;;5004788;28;20022;-72
2023/07/03 02:37:08;;;;;;;33.33;22.05;;;29.50;99.90;;;;;;5007617;28;20036;-69
2023/07/03 02:39:35;;;;;;;39.75;21.73;;;29.50;99.90;;;;;;5012275;28;20648;-71
2023/07/03 02:42:02;;;;;;;33.55;23.08;;;29.50;99.90;;;;;;5009913;28;20414;-70
2023/07/03 02:44:28;;;;;;;34.67;22.83;;;29.40;99.90;;;;;;5012744;28;20058;-73
2023/07/03 02:46:55;;;;;;;208.45;174.23;;;29.30;99.90;;;;;;5009911;28;20034;-69
2023/07/03 02:49:21;;;;;;;40.80;22.25;;;29.30;99.90;;;;;;5013701;28;20064;-67
2023/07/03 02:51:48;;;;;;;36.83;21.40;;;29.40;99.90;;;;;;5013285;28;20375;-67
2023/07/03 02:54:15;;;;;;;30.17;21.75;;;29.40;99.90;;;;;;5013105;28;20034;-69
2023/07/03 02:56:41;;;;;;;45.17;21.63;;;29.40;99.90;;;;;;5007968;28;20109;-68
2023/07/03 02:59:08;;;;;;;31.40;22.30;;;29.40;99.90;;;;;;5001696;28;20014;-67
2023/07/03 03:01:36;;;;;;;31.92;21.85;;;29.40;99.90;;;;;;4993612;28;20145;-69
2023/07/03 03:04:02;;;;;;;27.02;20.23;;;29.40;99.90;;;;;;4993832;28;20487;-68
2023/07/03 03:06:33;;;;;;;36.33;22.50;;;29.40;99.90;;;;;;4993777;28;20077;-68
2023/07/03 03:08:59;;;;;;;36.20;22.05;;;29.50;99.90;;;;;;5000882;28;20037;-67
2023/07/03 03:11:26;;;;;;;32.90;23.00;;;29.60;99.90;;;;;;5005048;28;20046;-73
2023/07/03 03:13:52;;;;;;;33.85;21.13;;;29.60;99.90;;;;;;5007083;28;20026;-68
2023/07/03 03:16:19;;;;;;;31.42;21.55;;;29.60;99.90;;;;;;5004406;28;20534;-69
2023/07/03 03:18:47;;;;;;;40.58;22.88;;;29.70;99.90;;;;;;5013106;28;20022;-71
2023/07/03 03:21:15;;;;;;;34.35;22.75;;;29.80;99.90;;;;;;5012630;28;20029;-67
2023/07/03 03:23:41;;;;;;;40.63;23.10;;;29.90;99.90;;;;;;5009591;28;20019;-68
2023/07/03 03:26:08;;;;;;;30.83;21.65;;;30.00;99.90;;;;;;5013455;28;20028;-67
2023/07/03 03:28:34;;;;;;;34.28;21.80;;;30.10;99.90;;;;;;5020577;28;20083;-67
2023/07/03 03:31:01;;;;;;;30.27;20.38;;;30.20;99.90;;;;;;4999212;28;20018;-68
2023/07/03 03:33:27;;;;;;;29.95;20.60;;;30.30;99.90;;;;;;5010847;28;20609;-71
2023/07/03 03:35:54;;;;;;;30.45;21.25;;;30.30;99.90;;;;;;5016777;28;20021;-70
2023/07/03 03:38:20;;;;;;;30.95;22.20;;;30.40;99.90;;;;;;5013669;28;20022;-66
2023/07/03 03:40:58;;;;;;;138.20;110.07;;;30.50;99.90;;;;;;5015693;28;20426;-66
2023/07/03 03:43:25;;;;;;;37.03;21.02;;;30.60;99.90;;;;;;5012471;28;20041;-70
2023/07/03 03:45:56;;;;;;;31.55;21.17;;;30.70;99.90;;;;;;5015388;28;20026;-68
2023/07/03 03:48:23;;;;;;;30.63;20.50;;;30.70;99.90;;;;;;5014842;28;20033;-71
2023/07/03 03:50:50;;;;;;;31.67;20.80;;;30.80;99.90;;;;;;5014934;28;20096;-70
2023/07/03 03:53:17;;;;;;;29.52;20.50;;;30.80;99.90;;;;;;5014645;28;20037;-67
2023/07/03 03:55:50;;;;;;;30.05;18.55;;;30.80;99.90;;;;;;5011336;28;20073;-67
2023/07/03 03:58:17;;;;;;;25.40;18.40;;;30.80;99.90;;;;;;5003063;28;20026;-69
2023/07/03 04:00:44;;;;;;;28.50;18.38;;;30.90;99.90;;;;;;5007313;28;20071;-68
2023/07/03 04:03:11;;;;;;;27.00;19.50;;;31.00;99.90;;;;;;5004616;28;20486;-67
2023/07/03 04:05:41;;;;;;;23.73;17.98;;;30.90;99.90;;;;;;5001305;28;20092;-70
2023/07/03 04:08:09;;;;;;;25.35;17.83;;;31.00;99.90;;;;;;5008767;28;20053;-70
2023/07/03 04:10:36;;;;;;;25.60;18.75;;;31.00;99.90;;;;;;5004900;28;20413;-68
2023/07/03 04:13:03;;;;;;;27.73;18.00;;;31.00;99.90;;;;;;5009483;28;20026;-67
2023/07/03 04:15:35;;;;;;;29.52;21.02;;;31.10;99.90;;;;;;5004690;28;20018;-67
2023/07/03 04:18:02;;;;;;;19.33;15.05;;;31.10;99.90;;;;;;5007737;28;20058;-67
2023/07/03 04:20:28;;;;;;;21.38;14.68;;;31.20;99.90;;;;;;5005645;28;20084;-66
2023/07/03 04:22:55;;;;;;;18.63;14.40;;;31.20;99.90;;;;;;5004103;28;20505;-67
2023/07/03 04:25:21;;;;;;;23.45;15.10;;;31.30;99.90;;;;;;5004041;28;20033;-68
2023/07/03 04:27:48;;;;;;;23.08;15.25;;;31.30;99.90;;;;;;5001552;28;20025;-68
2023/07/03 04:30:15;;;;;;;21.95;15.30;;;31.50;99.90;;;;;;5004695;28;20552;-69
2023/07/03 04:32:42;;;;;;;25.25;16.65;;;31.60;99.90;;;;;;5024881;28;20088;-69
2023/07/03 04:35:08;;;;;;;27.20;17.88;;;31.60;99.90;;;;;;5008919;28;20021;-69
2023/07/03 04:37:36;;;;;;;24.38;16.08;;;31.70;99.90;;;;;;5008333;28;20034;-69
2023/07/03 04:40:03;;;;;;;25.35;16.65;;;31.90;99.90;;;;;;5008090;28;20037;-68
2023/07/03 04:42:32;;;;;;;24.65;16.88;;;31.90;99.90;;;;;;5005311;28;20083;-70
2023/07/03 04:45:00;;;;;;;23.10;15.57;;;31.90;99.90;;;;;;5014261;28;20414;-72
2023/07/03 04:47:26;;;;;;;24.40;16.25;;;31.80;99.90;;;;;;5014838;28;20025;-71
2023/07/03 04:49:55;;;;;;;24.85;15.73;;;31.80;99.90;;;;;;5014693;28;20044;-72
2023/07/03 04:52:23;;;;;;;19.08;13.90;;;31.80;99.90;;;;;;5013622;28;20032;-72
2023/07/03 04:54:49;;;;;;;21.13;13.45;;;31.80;99.90;;;;;;5014855;28;20040;-72
2023/07/03 04:57:16;;;;;;;19.40;11.70;;;31.80;99.90;;;;;;5014620;28;20033;-71
2023/07/03 04:59:43;;;;;;;15.20;11.90;;;31.80;99.90;;;;;;5012897;28;20379;-72
2023/07/03 05:02:12;;;;;;;28.33;16.60;;;31.80;99.90;;;;;;5012521;28;20129;-72
2023/07/03 05:04:38;;;;;;;24.52;17.85;;;31.90;99.90;;;;;;5014295;28;20049;-72
2023/07/03 05:07:07;;;;;;;26.77;17.40;;;32.00;99.90;;;;;;5014374;28;20022;-72
2023/07/03 05:09:37;;;;;;;24.63;17.33;;;32.00;99.90;;;;;;5014481;28;20022;-72
2023/07/03 05:12:04;;;;;;;22.60;17.20;;;32.00;99.90;;;;;;5014148;28;20038;-72
2023/07/03 05:14:30;;;;;;;24.23;16.80;;;31.90;99.90;;;;;;5014422;28;20375;-72
2023/07/03 05:16:57;;;;;;;25.58;17.40;;;31.90;99.90;;;;;;5014535;28;20025;-72
2023/07/03 05:19:24;;;;;;;23.15;15.82;;;31.90;99.90;;;;;;5014243;28;20022;-72
2023/07/03 05:21:50;;;;;;;22.20;14.75;;;31.90;99.90;;;;;;5014270;28;20484;-71
2023/07/03 05:24:17;;;;;;;21.85;15.45;;;32.00;99.90;;;;;;5014235;28;20525;-71
2023/07/03 05:26:43;;;;;;;23.90;15.82;;;32.00;99.90;;;;;;5014093;28;20368;-72
2023/07/03 05:29:10;;;;;;;24.27;16.80;;;32.00;99.90;;;;;;5014079;28;20026;-71
2023/07/03 05:31:36;;;;;;;23.35;16.55;;;32.00;99.90;;;;;;5014204;28;20018;-72
2023/07/03 05:34:03;;;;;;;25.02;17.55;;;32.00;99.90;;;;;;5013919;28;20018;-72
2023/07/03 05:36:30;;;;;;;23.02;15.55;;;32.00;99.90;;;;;;5014192;28;20014;-71
2023/07/03 05:38:56;;;;;;;29.70;16.08;;;32.00;99.90;;;;;;5014329;28;20021;-72
2023/07/03 05:41:24;;;;;;;22.17;15.38;;;32.10;99.90;;;;;;5013978;28;20046;-72
2023/07/03 05:43:50;;;;;;;34.08;18.23;;;32.30;99.90;;;;;;5013668;28;20048;-72
2023/07/03 05:46:17;;;;;;;25.02;19.10;;;32.40;99.90;;;;;;5014243;28;20022;-71
2023/07/03 05:48:43;;;;;;;37.13;21.90;;;32.50;99.90;;;;;;5014299;28;20037;-72
2023/07/03 05:51:10;;;;;;;32.65;24.73;;;32.30;99.90;;;;;;5012537;28;20029;-72
2023/07/03 05:53:37;;;;;;;29.30;22.45;;;32.30;99.90;;;;;;5013802;28;20025;-72
2023/07/03 05:56:03;;;;;;;23.67;16.80;;;32.30;99.90;;;;;;5013824;28;20106;-71
2023/07/03 06:00:59;;;;;;;30.55;18.33;;;32.30;99.90;;;;;;5005784;28;20152;-70
2023/07/03 06:03:26;;;;;;;26.92;22.13;;;32.30;99.90;;;;;;5006290;28;20060;-69
2023/07/03 06:05:52;;;;;;;184.88;165.63;;;32.40;99.90;;;;;;5007305;28;20025;-70
2023/07/03 06:08:19;;;;;;;27.95;16.73;;;32.40;99.90;;;;;;5013028;28;20025;-70
2023/07/03 06:10:46;;;;;;;23.02;15.95;;;32.40;99.90;;;;;;5010442;28;20049;-71
2023/07/03 06:13:13;;;;;;;26.88;16.33;;;32.40;99.90;;;;;;5005299;28;20550;-70
2023/07/03 06:15:41;;;;;;;28.20;18.13;;;32.30;99.90;;;;;;5004934;28;20448;-71
2023/07/03 06:18:08;;;;;;;28.33;18.63;;;32.20;99.90;;;;;;5007896;28;20030;-70
2023/07/03 06:20:35;;;;;;;28.52;19.45;;;32.10;99.90;;;;;;5006672;28;20041;-70
2023/07/03 06:23:01;;;;;;;28.80;18.15;;;32.20;99.90;;;;;;5002356;28;20056;-70
2023/07/03 06:25:28;;;;;;;26.25;16.83;;;32.10;99.90;;;;;;5011275;28;20025;-70
2023/07/03 06:27:54;;;;;;;23.92;17.40;;;32.20;99.90;;;;;;5007760;28;20030;-69
2023/07/03 06:30:21;;;;;;;25.40;16.52;;;32.10;99.90;;;;;;5006996;28;20093;-70
2023/07/03 06:32:47;;;;;;;24.92;15.82;;;32.20;99.90;;;;;;5005129;28;20034;-70
2023/07/03 06:35:15;;;;;;;25.50;16.77;;;32.30;99.90;;;;;;5007767;28;20018;-66
2023/07/03 06:37:41;;;;;;;23.08;13.68;;;32.30;99.90;;;;;;5005981;28;20109;-67
2023/07/03 06:40:10;;;;;;;24.70;13.68;;;32.30;99.90;;;;;;5007279;28;20069;-67
2023/07/03 06:42:38;;;;;;;20.17;13.38;;;32.40;99.90;;;;;;5005814;28;20037;-70
2023/07/03 06:45:05;;;;;;;19.65;14.50;;;32.40;99.90;;;;;;5005929;28;20026;-70
2023/07/03 06:47:32;;;;;;;27.35;15.50;;;32.40;99.90;;;;;;5013363;28;20104;-70
2023/07/03 06:49:58;;;;;;;23.00;14.60;;;32.40;99.90;;;;;;5013126;28;20022;-70
2023/07/03 06:52:25;;;;;;;26.60;13.90;;;32.40;99.90;;;;;;5011659;28;20172;-70
2023/07/03 06:54:51;;;;;;;20.23;12.70;;;32.50;99.90;;;;;;5013713;28;20018;-70
2023/07/03 06:57:18;;;;;;;18.30;11.85;;;32.60;99.90;;;;;;5010600;28;20100;-70
2023/07/03 06:59:44;;;;;;;26.92;15.43;;;32.60;99.90;;;;;;5012856;28;20109;-70
2023/07/03 07:02:11;;;;;;;24.48;15.77;;;32.60;99.90;;;;;;4997894;28;20028;-68
2023/07/03 07:04:38;;;;;;;64.28;57.70;;;32.60;99.90;;;;;;5007117;28;20028;-69
2023/07/03 07:07:04;;;;;;;31.42;14.85;;;32.70;99.90;;;;;;5016870;28;20018;-70
2023/07/03 07:09:31;;;;;;;24.30;13.70;;;32.70;99.90;;;;;;5015346;28;20014;-69
2023/07/03 07:11:58;;;;;;;25.60;14.55;;;32.80;99.90;;;;;;5009684;28;20058;-69
2023/07/03 07:14:24;;;;;;;18.13;12.52;;;32.70;99.90;;;;;;4997257;28;20105;-71
2023/07/03 07:16:51;;;;;;;29.90;24.52;;;32.60;99.90;;;;;;4997620;28;20531;-70
2023/07/03 07:19:17;;;;;;;21.20;13.00;;;32.50;99.90;;;;;;4999858;28;20025;-70
2023/07/03 07:21:45;;;;;;;21.77;13.63;;;32.50;99.90;;;;;;5011667;28;20057;-70
2023/07/03 07:24:29;;;;;;;22.60;13.38;;;32.50;99.90;;;;;;5009498;28;20491;-70
2023/07/03 07:26:58;;;;;;;20.85;12.50;;;32.50;99.90;;;;;;5007388;28;20027;-71
2023/07/03 07:29:25;;;;;;;30.05;17.17;;;32.40;99.90;;;;;;5003257;28;20030;-70
2023/07/03 07:31:55;;;;;;;28.58;16.58;;;32.50;99.90;;;;;;5006741;28;20030;-70
2023/07/03 07:34:22;;;;;;;35.47;21.95;;;32.60;99.90;;;;;;5005139;28;20101;-71
2023/07/03 07:36:49;;;;;;;28.60;16.02;;;32.60;99.90;;;;;;5005658;28;20030;-70
2023/07/03 07:39:19;;;;;;;23.30;16.50;;;32.60;99.90;;;;;;5007123;28;20026;-71
2023/07/03 07:41:46;;;;;;;31.10;17.88;;;32.60;99.90;;;;;;5006876;28;20025;-70
2023/07/03 07:44:13;;;;;;;25.10;18.02;;;32.80;99.90;;;;;;5012964;28;20026;-69
2023/07/03 07:46:39;;;;;;;24.27;16.25;;;32.90;99.90;;;;;;5000070;28;20038;-71
2023/07/03 07:49:06;;;;;;;20.65;14.23;;;32.90;99.90;;;;;;5007848;28;20029;-71
2023/07/03 07:51:33;;;;;;;25.27;13.27;;;32.90;99.90;;;;;;5007584;28;20026;-71
2023/07/03 07:53:59;;;;;;;26.30;16.17;;;32.70;99.90;;;;;;5004680;28;20014;-71
2023/07/03 07:56:27;;;;;;;31.65;20.40;;;32.70;99.90;;;;;;5006098;28;20051;-71
2023/07/03 07:58:57;;;;;;;33.10;20.70;;;32.60;99.90;;;;;;5006738;28;20034;-71
2023/07/03 08:01:24;;;;;;;28.35;18.27;;;32.50;99.90;;;;;;5001202;28;20025;-72
2023/07/03 08:03:50;;;;;;;27.77;17.52;;;32.50;99.90;;;;;;5000823;28;20391;-71
2023/07/03 08:06:17;;;;;;;32.42;20.77;;;32.40;99.90;;;;;;5003494;28;20379;-71
2023/07/03 08:08:45;;;;;;;25.20;17.02;;;32.50;99.90;;;;;;5001382;28;20026;-70
2023/07/03 08:11:13;;;;;;;25.67;16.02;;;32.50;99.90;;;;;;5006281;28;20514;-71
2023/07/03 08:13:41;;;;;;;26.67;15.85;;;32.50;99.90;;;;;;5006367;28;20026;-71
2023/07/03 08:16:09;;;;;;;26.13;15.60;;;32.50;99.90;;;;;;5006228;28;20018;-71
2023/07/03 08:18:36;;;;;;;26.90;16.38;;;32.50;99.90;;;;;;5005146;28;20422;-71
2023/07/03 08:21:02;;;;;;;26.67;18.15;;;32.50;99.90;;;;;;5004678;28;20478;-71
2023/07/03 08:23:31;;;;;;;27.38;17.00;;;32.50;99.90;;;;;;5006019;28;20038;-72
2023/07/03 08:25:59;;;;;;;22.08;16.52;;;32.60;99.90;;;;;;5005249;28;20030;-71
2023/07/03 08:28:25;;;;;;;27.95;18.85;;;32.70;99.90;;;;;;5002499;28;20494;-70
2023/07/03 08:30:52;;;;;;;26.50;17.13;;;32.80;99.90;;;;;;5012932;28;20083;-68
2023/07/03 08:33:19;;;;;;;26.67;17.17;;;32.90;99.90;;;;;;5011936;28;20030;-65
2023/07/03 08:35:46;;;;;;;28.05;18.42;;;32.90;99.90;;;;;;5015131;28;20049;-66
2023/07/03 08:38:13;;;;;;;22.30;15.55;;;32.90;99.90;;;;;;5014689;28;20030;-67
2023/07/03 08:40:39;;;;;;;25.40;16.23;;;32.70;99.90;;;;;;5014559;28;20384;-66
2023/07/03 08:43:11;;;;;;;27.48;23.10;;;32.70;99.90;;;;;;5014886;28;20555;-67
2023/07/03 08:45:43;;;;;;;25.10;16.05;;;32.70;99.90;;;;;;5014745;28;20030;-67
2023/07/03 08:48:16;;;;;;;93.05;84.57;;;32.70;99.90;;;;;;5015017;28;20030;-67
2023/07/03 08:50:49;;;;;;;20.42;13.82;;;32.60;99.90;;;;;;5014352;28;20026;-66
2023/07/03 08:53:22;;;;;;;22.77;14.63;;;32.60;99.90;;;;;;5013631;28;20037;-67
2023/07/03 08:56:05;;;;;;;25.20;14.32;;;32.60;99.90;;;;;;5014036;28;20076;-67
2023/07/03 08:58:32;;;;;;;26.00;15.05;;;32.50;99.90;;;;;;5014405;28;20427;-67
2023/07/03 09:01:04;;;;;;;20.40;13.85;;;32.50;99.90;;;;;;5014477;28;20386;-66
2023/07/03 09:03:50;;;;;;;25.00;14.85;;;32.50;99.90;;;;;;5014385;28;20104;-66
2023/07/03 09:06:25;;;;;;;21.08;14.82;;;32.50;99.90;;;;;;5014504;28;20030;-66
2023/07/03 09:08:59;;;;;;;26.83;14.98;;;32.50;99.90;;;;;;5008477;28;20057;-66
2023/07/03 09:11:31;;;;;;;24.52;15.43;;;32.60;99.90;;;;;;5006601;28;20408;-66
2023/07/03 09:14:02;;;;;;;20.65;14.13;;;32.50;99.90;;;;;;5008446;28;20430;-67
2023/07/03 09:16:30;;;;;;;21.25;12.88;;;32.60;99.90;;;;;;5005815;28;20034;-67
2023/07/03 09:19:17;;;;;;;18.13;12.07;;;32.60;99.90;;;;;;5006151;28;20475;-68
2023/07/03 09:21:45;;;;;;;19.55;12.20;;;32.60;99.90;;;;;;5005417;28;20033;-69
2023/07/03 09:24:36;;;;;;;20.63;13.40;;;32.60;99.90;;;;;;5006878;28;20033;-67
2023/07/03 09:27:10;;;;;;;24.65;15.32;;;32.70;99.90;;;;;;5004834;28;20029;-68
2023/07/03 09:29:38;;;;;;;22.17;15.55;;;32.60;99.90;;;;;;5004925;28;20037;-72
2023/07/03 09:32:05;;;;;;;25.50;16.17;;;32.70;99.90;;;;;;5001983;28;20041;-67
2023/07/03 09:35:00;;;;;;;22.88;15.43;;;32.60;99.90;;;;;;5014601;28;20116;-68
2023/07/03 09:37:27;;;;;;;31.15;16.67;;;32.60;99.90;;;;;;5014624;28;20190;-66
2023/07/03 09:39:54;;;;;;;27.92;17.98;;;32.70;99.90;;;;;;5014432;28;20026;-67
2023/07/03 09:42:22;;;;;;;26.63;18.63;;;32.70;99.90;;;;;;5014346;28;20084;-67
2023/07/03 09:44:50;;;;;;;32.33;19.88;;;32.70;99.90;;;;;;5014570;28;20030;-67
2023/07/03 09:47:22;;;;;;;22.70;16.27;;;32.70;99.90;;;;;;5014192;28;20398;-67
2023/07/03 09:49:49;;;;;;;22.00;16.45;;;32.70;99.90;;;;;;5013095;28;20026;-67
2023/07/03 09:52:16;;;;;;;29.88;22.55;;;32.70;99.90;;;;;;5014638;28;20528;-67
2023/07/03 09:54:45;;;;;;;27.65;19.35;;;32.70;99.90;;;;;;5015261;28;20026;-67
2023/07/03 09:57:27;;;;;;;30.58;19.88;;;32.70;99.90;;;;;;5015160;28;20356;-67
2023/07/03 10:00:09;;;;;;;33.05;20.40;;;32.70;99.90;;;;;;5014286;28;20029;-67
2023/07/03 10:02:35;;;;;;;;;;;32.70;99.90;;;;;;5014021;28;20038;-68
2023/07/03 10:05:02;;;;;;;34.80;23.13;;;32.70;99.90;;;;;;5013172;28;19909;-66
2023/07/03 10:07:38;;;;;;;39.00;24.30;;;32.60;99.90;;;;;;5005411;28;20026;-66
2023/07/03 10:10:12;;;;;;;34.58;22.27;;;32.60;99.90;;;;;;4994588;28;20479;-66
2023/07/03 10:12:48;;;;;;;51.33;33.10;;;32.60;99.90;;;;;;4994235;28;20129;-66
2023/07/03 10:15:21;;;;;;;63.30;36.58;;;32.50;99.90;;;;;;4993875;28;20470;-66
2023/07/03 10:18:00;;;;;;;78.60;55.42;;;32.50;99.90;;;;;;4994209;28;20022;-66
2023/07/03 10:20:34;;;;;;;105.72;74.80;;;32.50;99.90;;;;;;4994102;28;20018;-66
2023/07/03 10:23:05;;;;;;;46.08;27.20;;;32.50;99.90;;;;;;4994267;28;20023;-66
2023/07/03 10:25:37;;;;;;;24.17;16.65;;;32.40;99.90;;;;;;4994141;28;20037;-66
2023/07/03 10:28:07;;;;;;;22.42;15.85;;;32.40;99.90;;;;;;5009396;28;20387;-66
2023/07/03 10:30:37;;;;;;;26.83;17.95;;;32.40;99.90;;;;;;5013157;28;20034;-66
2023/07/03 10:33:18;;;;;;;32.53;19.83;;;32.40;99.90;;;;;;4998140;28;20030;-66
2023/07/03 10:35:49;;;;;;;148.85;133.35;;;32.40;99.90;;;;;;5021726;28;20017;-66
2023/07/03 10:38:43;;;;;;;42.42;21.98;;;32.40;99.90;;;;;;5037961;28;20076;-67
2023/07/03 10:41:13;;;;;;;505.60;428.15;;;32.20;99.90;;;;;;5021895;28;20024;-67
2023/07/03 10:43:50;;;;;;;53.08;30.75;;;32.10;99.90;;;;;;5016405;28;20032;-66
2023/07/03 10:46:49;;;;;;;61.53;45.72;;;32.00;99.90;;;;;;5012092;28;20502;-66
2023/07/03 10:49:31;;;;;;;542.45;486.05;;;31.90;99.90;;;;;;4998253;28;20102;-66
2023/07/03 10:52:15;;;;;;;49.28;27.48;;;31.80;99.90;;;;;;4997693;28;20109;-65
2023/07/03 10:54:50;;;;;;;60.08;31.55;;;31.80;99.90;;;;;;5016180;28;20044;-64
2023/07/03 10:57:27;;;;;;;58.53;28.67;;;31.80;99.90;;;;;;5017257;28;20014;-67
2023/07/03 10:59:57;;;;;;;49.08;24.90;;;31.80;99.90;;;;;;5011189;28;20018;-67
2023/07/03 11:03:03;;;;;;;45.45;27.58;;;31.80;99.90;;;;;;5010333;28;20078;-66
2023/07/03 11:05:40;;;;;;;61.55;31.92;;;31.80;99.90;;;;;;5005138;28;20088;-68
2023/07/03 11:08:35;;;;;;;110.90;56.72;;;31.80;99.90;;;;;;5004970;28;20099;-67
2023/07/03 11:11:23;;;;;;;188.23;94.95;;;31.70;99.90;;;;;;5006761;28;20042;-68
2023/07/03 11:14:01;;;;;;;148.27;77.18;;;31.70;99.90;;;;;;4979072;28;20403;-68
2023/07/03 11:16:54;;;;;;;189.30;107.00;;;31.80;99.90;;;;;;5008006;28;20387;-68
2023/07/03 11:19:40;;;;;;;171.38;96.18;;;31.80;99.90;;;;;;5005046;28;20068;-68
2023/07/03 11:22:13;;;;;;;173.55;97.63;;;31.80;99.90;;;;;;5006517;28;20137;-68
2023/07/03 11:24:59;;;;;;;175.77;90.13;;;31.80;99.90;;;;;;5004887;28;20018;-67
2023/07/03 11:27:49;;;;;;;110.47;58.50;;;31.80;99.90;;;;;;5006640;28;20018;-66
2023/07/03 11:30:17;;;;;;;86.88;46.05;;;31.80;99.90;;;;;;5005820;28;20018;-67
2023/07/03 11:32:45;;;;;;;57.55;34.30;;;31.80;99.90;;;;;;5004693;28;20030;-66
2023/07/03 11:35:14;;;;;;;63.53;34.05;;;31.80;99.90;;;;;;5005983;28;20018;-66
2023/07/03 11:37:44;;;;;;;61.53;32.35;;;31.80;99.90;;;;;;5006401;28;20064;-66
2023/07/03 11:40:23;;;;;;;67.28;35.63;;;31.80;99.90;;;;;;5005473;28;20014;-65
2023/07/03 11:43:18;;;;;;;93.72;39.08;;;31.80;99.90;;;;;;5007037;28;20059;-67
2023/07/03 11:46:04;;;;;;;76.38;37.45;;;31.70;99.90;;;;;;5003927;28;20068;-66
2023/07/03 11:48:33;;;;;;;83.93;44.67;;;31.70;99.90;;;;;;5007295;28;20101;-66
2023/07/03 11:51:03;;;;;;;73.07;36.65;;;31.70;99.90;;;;;;5004551;28;20483;-66
2023/07/03 11:53:32;;;;;;;64.20;34.67;;;31.60;99.90;;;;;;5004626;28;20033;-66
2023/07/03 11:55:58;;;;;;;56.95;31.95;;;31.60;99.90;;;;;;5006744;28;20438;-67
2023/07/03 11:58:29;;;;;;;55.70;28.83;;;31.60;99.90;;;;;;5010289;28;20037;-68
2023/07/03 12:01:15;;;;;;;51.20;29.63;;;31.50;99.90;;;;;;5005361;28;20018;-67
2023/07/03 12:03:54;;;;;;;52.47;28.98;;;31.50;99.90;;;;;;5010826;28;20030;-67
2023/07/03 12:06:41;;;;;;;49.90;29.92;;;31.50;99.90;;;;;;5006327;28;20475;-68
2023/07/03 12:09:19;;;;;;;46.25;28.80;;;31.40;99.90;;;;;;5007385;28;20490;-69
2023/07/03 12:12:15;;;;;;;51.22;29.08;;;31.40;99.90;;;;;;5007118;28;20406;-69
2023/07/03 12:14:44;;;;;;;57.55;31.25;;;31.40;99.90;;;;;;5005042;28;20062;-68
2023/07/03 12:17:21;;;;;;;59.47;30.75;;;31.40;99.90;;;;;;5010379;28;20470;-66
2023/07/03 12:19:49;;;;;;;47.17;27.40;;;31.40;99.90;;;;;;5002304;28;20034;-68
2023/07/03 12:22:20;;;;;;;44.08;25.67;;;31.40;99.90;;;;;;5008220;28;20028;-68
2023/07/03 12:24:46;;;;;;;49.67;28.40;;;31.30;99.90;;;;;;5010608;28;20073;-68
2023/07/03 12:27:14;;;;;;;46.05;26.50;;;31.30;99.90;;;;;;5006582;28;20664;-68
2023/07/03 12:29:50;;;;;;;32.33;19.33;;;31.30;99.90;;;;;;5011855;28;20030;-67
2023/07/03 12:32:28;;;;;;;31.13;19.13;;;31.20;99.90;;;;;;5004376;28;20018;-68
2023/07/03 12:35:11;;;;;;;35.50;18.15;;;31.30;99.90;;;;;;5004263;28;20040;-70
2023/07/03 12:37:44;;;;;;;30.23;17.85;;;31.10;99.90;;;;;;5004779;28;20015;-69
2023/07/03 12:40:11;;;;;;;26.92;17.08;;;31.20;99.90;;;;;;5006998;28;20023;-69
2023/07/03 12:42:38;;;;;;;22.63;15.68;;;31.10;99.90;;;;;;5007643;28;20097;-69